Time;durP1;ratioP1;P1;durP2;ratioP2;P2;SDS_P1;SDS_P2;PMS_P1;PMS_P2;Temp;Humidity;BMP_temperature;BMP_pressure;BME280_temperature;BME280_humidity;BME280_pressure;Samples;Min_cycle;Max_cycle;Signal;HPM_P1;HPM_P2
2024/01/30 00:00:09;;;;;;;2.23;1.63;;;6.20;74.40;;;;;;6335387;22;20610;-89
2024/01/30 00:02:38;;;;;;;0.50;0.50;;;6.20;74.40;;;;;;6335950;22;20188;-89
2024/01/30 00:05:07;;;;;;;1.60;1.50;;;6.20;74.40;;;;;;6331110;22;20167;-90
2024/01/30 00:07:35;;;;;;;2.00;1.60;;;6.20;74.40;;;;;;6334487;22;20225;-90
2024/01/30 00:10:06;;;;;;;0.93;0.93;;;6.20;74.40;;;;;;6332274;22;20167;-86
2024/01/30 00:12:34;;;;;;;0.87;0.87;;;6.20;74.30;;;;;;6333511;22;20196;-85
2024/01/30 00:15:08;;;;;;;0.40;0.40;;;6.20;74.30;;;;;;6330454;22;20203;-87
2024/01/30 00:17:37;;;;;;;2.20;1.83;;;6.10;74.30;;;;;;6335419;22;20194;-85
2024/01/30 00:20:08;;;;;;;0.60;0.60;;;6.10;74.20;;;;;;6333182;22;20442;-86
2024/01/30 00:22:37;;;;;;;0.50;0.50;;;6.10;74.20;;;;;;6334195;22;20702;-86
2024/01/30 00:25:06;;;;;;;2.47;2.27;;;6.00;74.10;;;;;;6331572;22;20177;-86
2024/01/30 00:27:35;;;;;;;3.73;1.30;;;6.00;74.10;;;;;;6334726;22;20201;-85
2024/01/30 00:30:06;;;;;;;1.93;1.73;;;6.00;74.10;;;;;;6334602;22;20526;-86
2024/01/30 00:32:35;;;;;;;1.70;1.13;;;6.00;74.10;;;;;;6333522;22;20503;-84
2024/01/30 00:35:04;;;;;;;1.83;1.17;;;5.90;74.10;;;;;;6330865;22;20172;-84
2024/01/30 00:37:32;;;;;;;4.27;1.63;;;5.90;74.20;;;;;;6333159;22;20219;-84
2024/01/30 00:40:01;;;;;;;1.47;1.37;;;5.90;74.20;;;;;;6333183;22;20177;-85
2024/01/30 00:42:30;;;;;;;1.50;1.40;;;5.80;74.30;;;;;;6335112;22;20170;-85
2024/01/30 00:44:59;;;;;;;0.80;0.80;;;5.80;74.30;;;;;;6329510;22;20164;-84
2024/01/30 00:47:29;;;;;;;2.40;2.00;;;5.80;74.30;;;;;;6332582;22;20172;-84
2024/01/30 00:49:57;;;;;;;2.07;1.37;;;5.70;74.30;;;;;;6333079;22;20214;-84
2024/01/30 00:52:26;;;;;;;0.60;0.60;;;5.70;74.30;;;;;;6333004;22;20504;-85
2024/01/30 00:54:55;;;;;;;0.93;0.93;;;5.70;74.30;;;;;;6330574;22;20653;-85
2024/01/30 00:57:24;;;;;;;1.17;1.10;;;5.70;74.30;;;;;;6334981;22;20510;-84
2024/01/30 00:59:52;;;;;;;0.90;0.90;;;5.60;74.30;;;;;;6333024;22;20671;-84
2024/01/30 01:02:21;;;;;;;0.90;0.90;;;5.60;74.30;;;;;;6331738;22;20663;-84
2024/01/30 01:04:51;;;;;;;0.73;0.73;;;5.60;74.30;;;;;;6328802;22;20674;-85
2024/01/30 01:07:19;;;;;;;0.83;0.83;;;5.50;74.30;;;;;;6332061;22;20578;-84
2024/01/30 01:09:48;;;;;;;1.33;1.23;;;5.50;74.40;;;;;;6332468;22;20182;-84
2024/01/30 01:12:16;;;;;;;1.87;1.77;;;5.50;74.30;;;;;;6331538;22;20527;-83
2024/01/30 01:14:45;;;;;;;1.50;1.03;;;5.50;74.30;;;;;;6329599;22;20200;-84
2024/01/30 01:17:13;;;;;;;0.83;0.83;;;5.50;74.40;;;;;;6334467;22;20165;-83
2024/01/30 01:19:42;;;;;;;1.47;1.37;;;5.50;74.40;;;;;;6332887;22;20628;-84
2024/01/30 01:22:12;;;;;;;0.60;0.60;;;5.50;74.40;;;;;;6331472;22;20183;-83
2024/01/30 01:24:42;;;;;;;4.43;1.77;;;5.40;74.40;;;;;;6329321;22;20168;-84
2024/01/30 01:27:10;;;;;;;0.40;0.40;;;5.40;74.40;;;;;;6330498;22;20248;-84
2024/01/30 01:29:39;;;;;;;1.50;1.33;;;5.40;74.40;;;;;;6332323;22;20488;-83
2024/01/30 01:32:08;;;;;;;1.73;1.63;;;5.40;74.40;;;;;;6332738;22;20161;-84
2024/01/30 01:34:36;;;;;;;2.30;2.10;;;5.40;74.30;;;;;;6328038;22;20655;-84
2024/01/30 01:37:05;;;;;;;2.50;2.10;;;5.30;74.20;;;;;;6334881;22;20223;-83
2024/01/30 01:39:35;;;;;;;1.50;1.40;;;5.30;74.30;;;;;;6331626;22;20166;-83
2024/01/30 01:42:05;;;;;;;1.60;1.27;;;5.30;74.30;;;;;;6331894;22;20175;-83
2024/01/30 01:44:33;;;;;;;1.27;1.27;;;5.30;74.30;;;;;;6328623;22;20165;-82
2024/01/30 01:47:02;;;;;;;2.27;2.10;;;5.20;74.30;;;;;;6332996;22;20176;-83
2024/01/30 01:49:30;;;;;;;3.23;1.23;;;5.20;74.30;;;;;;6333248;22;20166;-83
2024/01/30 01:52:00;;;;;;;2.10;1.13;;;5.20;74.40;;;;;;6332288;22;20501;-83
2024/01/30 01:54:30;;;;;;;0.87;0.70;;;5.20;74.40;;;;;;6325794;22;20732;-84
2024/01/30 01:57:01;;;;;;;1.13;0.83;;;5.10;74.40;;;;;;6333295;22;20187;-83
2024/01/30 01:59:30;;;;;;;1.30;1.20;;;5.10;74.40;;;;;;6333295;22;20196;-84
2024/01/30 02:01:58;;;;;;;5.43;1.47;;;5.10;74.40;;;;;;6332853;22;20219;-83
2024/01/30 02:04:27;;;;;;;1.93;1.83;;;5.10;74.40;;;;;;6328549;22;20171;-86
2024/01/30 02:06:56;;;;;;;1.27;1.17;;;5.00;74.40;;;;;;6342192;22;20196;-86
2024/01/30 02:09:25;;;;;;;4.17;2.17;;;5.10;74.50;;;;;;6346885;22;20540;-87
2024/01/30 02:11:53;;;;;;;1.60;1.50;;;5.00;74.40;;;;;;6346425;22;20173;-89
2024/01/30 02:14:24;;;;;;;2.00;1.43;;;5.00;74.40;;;;;;6338598;22;20206;-90
2024/01/30 02:16:57;;;;;;;1.53;1.43;;;5.00;74.50;;;;;;6333459;22;20170;-90
2024/01/30 02:19:25;;;;;;;2.80;2.33;;;5.00;74.50;;;;;;6330589;22;20247;-90
2024/01/30 02:21:56;;;;;;;1.13;1.07;;;5.00;74.50;;;;;;6329420;22;20680;-90
2024/01/30 02:24:24;;;;;;;1.63;1.53;;;4.90;74.50;;;;;;6329375;22;20168;-90
2024/01/30 02:26:53;;;;;;;1.23;1.13;;;4.90;74.50;;;;;;6334705;22;20168;-90
2024/01/30 02:29:21;;;;;;;0.97;0.93;;;4.90;74.50;;;;;;6333228;22;20464;-90
2024/01/30 02:31:50;;;;;;;3.90;2.63;;;4.90;74.60;;;;;;6333986;22;20509;-86
2024/01/30 02:34:19;;;;;;;2.90;1.13;;;4.90;74.60;;;;;;6330700;22;20196;-91
2024/01/30 02:36:48;;;;;;;0.83;0.83;;;4.90;74.60;;;;;;6333085;22;20172;-91
2024/01/30 02:39:18;;;;;;;0.50;0.50;;;4.90;74.60;;;;;;6337104;22;20648;-90
2024/01/30 02:41:46;;;;;;;2.47;2.00;;;4.90;74.60;;;;;;6335383;22;20218;-90
2024/01/30 02:44:15;;;;;;;2.23;2.13;;;4.90;74.70;;;;;;6330777;22;20467;-90
2024/01/30 02:46:44;;;;;;;0.70;0.70;;;4.80;74.50;;;;;;6333973;22;20164;-90
2024/01/30 02:49:12;;;;;;;3.50;1.80;;;4.80;74.60;;;;;;6331521;22;20199;-90
2024/01/30 02:51:41;;;;;;;1.13;1.03;;;4.80;74.70;;;;;;6333065;22;20243;-86
2024/01/30 02:54:10;;;;;;;6.50;1.07;;;4.80;74.70;;;;;;6327438;22;20526;-86
2024/01/30 02:56:40;;;;;;;1.10;1.10;;;4.80;74.70;;;;;;6332908;22;20840;-86
2024/01/30 02:59:09;;;;;;;1.77;1.67;;;4.70;74.70;;;;;;6334773;22;20171;-86
2024/01/30 03:01:44;;;;;;;2.13;1.93;;;4.70;74.80;;;;;;6333844;22;20636;-87
2024/01/30 03:04:13;;;;;;;0.70;0.70;;;4.70;74.80;;;;;;6328287;22;20559;-86
2024/01/30 03:06:47;;;;;;;1.07;1.07;;;4.70;74.80;;;;;;6334418;22;20176;-87
2024/01/30 03:09:17;;;;;;;2.20;1.37;;;4.70;74.80;;;;;;6331522;22;20221;-87
2024/01/30 03:11:48;;;;;;;2.80;1.80;;;4.70;74.80;;;;;;6333484;22;20172;-86
2024/01/30 03:14:16;;;;;;;2.67;2.47;;;4.60;74.80;;;;;;6326766;22;20406;-89
2024/01/30 03:16:45;;;;;;;1.03;1.03;;;4.60;74.70;;;;;;6334165;22;20670;-87
2024/01/30 03:19:14;;;;;;;1.27;1.13;;;4.60;74.80;;;;;;6331336;22;20165;-86
2024/01/30 03:21:43;;;;;;;2.33;2.13;;;4.60;74.80;;;;;;6334111;22;20471;-86
2024/01/30 03:24:12;;;;;;;1.40;1.17;;;4.60;74.90;;;;;;6328109;22;20607;-87
2024/01/30 03:26:40;;;;;;;1.30;1.20;;;4.60;74.90;;;;;;6333057;22;20168;-86
2024/01/30 03:29:10;;;;;;;2.87;1.93;;;4.60;74.90;;;;;;6330953;22;20167;-86
2024/01/30 03:31:38;;;;;;;1.73;1.60;;;4.50;74.90;;;;;;6332466;22;20173;-86
2024/01/30 03:34:07;;;;;;;2.20;1.40;;;4.50;74.90;;;;;;6327233;22;20192;-85
2024/01/30 03:36:35;;;;;;;3.00;2.73;;;4.50;74.90;;;;;;6331524;22;20168;-85
2024/01/30 03:39:04;;;;;;;2.27;2.10;;;4.50;74.90;;;;;;6330420;22;20164;-85
2024/01/30 03:41:33;;;;;;;1.53;1.30;;;4.50;75.00;;;;;;6331921;22;20175;-85
2024/01/30 03:44:02;;;;;;;1.37;1.30;;;4.40;74.90;;;;;;6326850;22;20174;-84
2024/01/30 03:46:32;;;;;;;0.90;0.90;;;4.50;75.00;;;;;;6332081;22;20192;-84
2024/01/30 03:49:00;;;;;;;1.60;1.40;;;4.40;75.00;;;;;;6330447;22;20175;-84
2024/01/30 03:51:29;;;;;;;1.53;1.43;;;4.40;75.10;;;;;;6333937;22;20169;-85
2024/01/30 03:53:57;;;;;;;0.60;0.60;;;4.40;75.20;;;;;;6327746;22;20172;-84
2024/01/30 03:56:26;;;;;;;2.67;2.43;;;4.50;75.20;;;;;;6332184;22;20176;-84
2024/01/30 03:58:55;;;;;;;1.30;1.27;;;4.40;75.20;;;;;;6335174;22;20172;-84
2024/01/30 04:01:24;;;;;;;1.43;1.33;;;4.40;75.20;;;;;;6331572;22;20750;-84
2024/01/30 04:03:54;;;;;;;4.30;1.87;;;4.40;75.20;;;;;;6330108;22;20164;-84
2024/01/30 04:06:22;;;;;;;8.60;2.97;;;4.40;75.20;;;;;;6332956;22;20563;-84
2024/01/30 04:08:51;;;;;;;5.33;3.67;;;4.30;75.20;;;;;;6330751;22;20179;-83
2024/01/30 04:11:20;;;;;;;1.60;1.40;;;4.30;75.20;;;;;;6332496;22;20175;-83
2024/01/30 04:13:49;;;;;;;2.13;1.93;;;4.30;75.20;;;;;;6331047;22;20171;-84
2024/01/30 04:16:21;;;;;;;3.10;2.80;;;4.30;75.30;;;;;;6330261;22;20204;-84
2024/01/30 04:18:51;;;;;;;9.63;5.63;;;4.30;75.30;;;;;;6334068;22;20175;-83
2024/01/30 04:21:22;;;;;;;1.50;1.40;;;4.30;75.40;;;;;;6332090;22;20176;-85
2024/01/30 04:23:52;;;;;;;2.73;2.13;;;4.30;75.30;;;;;;6327500;22;20177;-85
2024/01/30 04:26:21;;;;;;;2.40;2.00;;;4.30;75.30;;;;;;6331384;22;20171;-85
2024/01/30 04:28:49;;;;;;;2.47;2.27;;;4.30;75.30;;;;;;6331601;22;20189;-84
2024/01/30 04:31:18;;;;;;;2.90;2.70;;;4.30;75.30;;;;;;6332498;22;20247;-84
2024/01/30 04:33:47;;;;;;;2.33;1.43;;;4.30;75.30;;;;;;6327597;22;20168;-84
2024/01/30 04:36:15;;;;;;;1.03;1.03;;;4.30;75.30;;;;;;6331422;22;20196;-84
2024/01/30 04:38:45;;;;;;;4.30;3.33;;;4.30;75.30;;;;;;6333487;22;20173;-89
2024/01/30 04:41:14;;;;;;;6.80;4.27;;;4.30;75.20;;;;;;6334377;22;20165;-91
2024/01/30 04:43:43;;;;;;;3.40;2.00;;;4.30;75.20;;;;;;6332632;22;20171;-90
2024/01/30 04:46:11;;;;;;;1.57;1.47;;;4.30;75.20;;;;;;6336104;22;20172;-88
2024/01/30 04:48:40;;;;;;;1.43;1.33;;;4.30;75.20;;;;;;6351233;22;20175;-88
2024/01/30 04:51:09;;;;;;;2.80;2.60;;;4.30;75.20;;;;;;6348096;22;20636;-89
2024/01/30 04:53:39;;;;;;;1.73;1.63;;;4.30;75.20;;;;;;6340004;22;20257;-84
2024/01/30 04:56:24;;;;;;;3.47;2.80;;;4.30;75.10;;;;;;6332574;22;20238;-83
2024/01/30 04:58:53;;;;;;;1.57;0.97;;;4.30;75.20;;;;;;6333112;22;20168;-86
2024/01/30 05:01:21;;;;;;;2.63;2.10;;;4.30;75.20;;;;;;6333587;22;20256;-86
2024/01/30 05:03:50;;;;;;;1.03;1.03;;;4.30;75.20;;;;;;6328017;22;20230;-83
2024/01/30 05:06:26;;;;;;;1.27;1.23;;;4.30;75.10;;;;;;6330478;22;20198;-85
2024/01/30 05:11:40;;;;;;;2.63;2.27;;;4.30;75.00;;;;;;6333546;22;20168;-86
2024/01/30 05:14:09;;;;;;;1.60;1.50;;;4.30;74.90;;;;;;6332454;22;20175;-85
2024/01/30 05:16:38;;;;;;;4.10;2.53;;;4.30;74.90;;;;;;6334508;22;20279;-84
2024/01/30 05:19:07;;;;;;;2.30;2.03;;;4.30;74.80;;;;;;6334094;22;20214;-85
2024/01/30 05:21:36;;;;;;;1.17;1.10;;;4.30;74.80;;;;;;6332948;22;20172;-83
2024/01/30 05:27:05;;;;;;;1.23;1.23;;;4.30;74.70;;;;;;6331402;22;20164;-84
2024/01/30 05:35:25;;;;;;;2.33;1.50;;;4.30;74.60;;;;;;6329640;22;20506;-85
2024/01/30 05:37:54;;;;;;;4.53;2.43;;;4.30;74.60;;;;;;6334896;22;20176;-85
2024/01/30 05:40:22;;;;;;;3.93;2.77;;;4.20;74.50;;;;;;6334739;22;20176;-85
2024/01/30 05:42:52;;;;;;;2.37;2.03;;;4.20;74.40;;;;;;6332984;22;20490;-84
2024/01/30 05:45:23;;;;;;;3.27;2.23;;;4.20;74.50;;;;;;6331074;22;20565;-84
2024/01/30 05:47:51;;;;;;;0.90;0.90;;;4.20;74.60;;;;;;6334011;22;20164;-85
2024/01/30 05:50:23;;;;;;;1.70;1.55;;;4.20;74.60;;;;;;6333228;22;20755;-84
2024/01/30 05:52:51;;;;;;;3.50;2.47;;;4.10;74.70;;;;;;6332493;22;20215;-84
2024/01/30 05:55:20;;;;;;;7.27;2.20;;;4.10;74.80;;;;;;6327717;22;20199;-82
2024/01/30 05:57:49;;;;;;;1.17;1.13;;;4.10;74.70;;;;;;6333671;22;20206;-85
2024/01/30 06:00:19;;;;;;;0.90;0.90;;;4.10;74.70;;;;;;6333716;22;20171;-83
2024/01/30 06:02:48;;;;;;;2.13;1.93;;;4.10;74.60;;;;;;6333197;22;20230;-83
2024/01/30 06:07:59;;;;;;;0.60;0.60;;;4.10;74.60;;;;;;6330498;22;20199;-82
2024/01/30 06:10:27;;;;;;;2.47;2.27;;;4.10;74.60;;;;;;6334752;22;20619;-82
2024/01/30 06:13:09;;;;;;;0.90;0.90;;;4.10;74.50;;;;;;6329340;22;20168;-82
2024/01/30 06:15:53;;;;;;;4.20;3.07;;;4.10;74.40;;;;;;6333024;22;20231;-83
2024/01/30 06:18:22;;;;;;;3.70;2.37;;;4.10;74.50;;;;;;6332815;22;20646;-83
2024/01/30 06:20:50;;;;;;;2.30;2.10;;;4.20;74.40;;;;;;6333942;22;20516;-82
2024/01/30 06:26:02;;;;;;;0.80;0.80;;;4.20;74.30;;;;;;6329840;22;20171;-81
2024/01/30 06:28:30;;;;;;;2.13;1.93;;;4.20;74.30;;;;;;6331752;22;20410;-82
2024/01/30 06:31:14;;;;;;;1.20;1.07;;;4.30;74.40;;;;;;6329707;22;20172;-83
2024/01/30 06:33:56;;;;;;;2.07;1.83;;;4.30;74.40;;;;;;6316378;22;20163;-83
2024/01/30 06:36:25;;;;;;;7.30;2.30;;;4.30;74.40;;;;;;6327889;22;20397;-83
2024/01/30 06:38:54;;;;;;;5.33;3.87;;;4.30;74.30;;;;;;6334195;22;20714;-81
2024/01/30 06:41:22;;;;;;;1.77;1.03;;;4.40;74.10;;;;;;6331146;22;20164;-82
2024/01/30 06:43:51;;;;;;;5.13;1.57;;;4.40;74.10;;;;;;6327247;22;20321;-82
2024/01/30 06:46:21;;;;;;;4.33;1.23;;;4.40;74.10;;;;;;6331770;22;20632;-83
2024/01/30 06:48:50;;;;;;;2.37;2.00;;;4.50;74.00;;;;;;6328369;22;20173;-83
2024/01/30 06:51:18;;;;;;;4.87;1.57;;;4.50;73.90;;;;;;6333625;22;20215;-83
2024/01/30 06:53:47;;;;;;;6.13;2.03;;;4.60;73.90;;;;;;6325599;22;20532;-81
2024/01/30 06:56:16;;;;;;;1.87;1.77;;;4.60;73.80;;;;;;6327497;22;20241;-82
2024/01/30 06:58:45;;;;;;;3.17;1.43;;;4.60;73.90;;;;;;6331537;22;20165;-83
2024/01/30 07:01:13;;;;;;;2.30;1.70;;;4.70;73.90;;;;;;6327149;22;20435;-82
2024/01/30 07:03:43;;;;;;;1.70;1.50;;;4.70;74.20;;;;;;6324952;22;20176;-82
2024/01/30 07:06:12;;;;;;;4.93;1.57;;;4.70;74.30;;;;;;6328112;22;20174;-83
2024/01/30 07:08:41;;;;;;;0.97;0.97;;;4.80;74.40;;;;;;6331448;22;20714;-83
2024/01/30 07:11:09;;;;;;;8.23;2.57;;;4.80;74.10;;;;;;6332906;22;20256;-82
2024/01/30 07:16:20;;;;;;;10.03;3.10;;;4.90;74.20;;;;;;6334077;22;20205;-81
2024/01/30 07:19:18;;;;;;;1.70;1.53;;;4.90;74.20;;;;;;6331400;22;20165;-81
2024/01/30 07:24:47;;;;;;;3.30;2.63;;;5.10;74.10;;;;;;6327152;22;20160;-81
2024/01/30 07:27:17;;;;;;;1.33;1.23;;;5.20;74.00;;;;;;6333930;22;20719;-82
2024/01/30 07:29:46;;;;;;;0.70;0.70;;;5.30;73.90;;;;;;6336797;22;20195;-82
2024/01/30 07:34:57;;;;;;;6.17;2.43;;;5.50;73.80;;;;;;6352723;22;20160;-82
2024/01/30 07:37:58;;;;;;;1.70;1.60;;;5.60;73.50;;;;;;6357340;22;20207;-81
2024/01/30 07:40:27;;;;;;;6.23;2.90;;;5.70;73.40;;;;;;6348977;22;20173;-82
2024/01/30 07:42:55;;;;;;;1.50;1.40;;;5.70;73.20;;;;;;6334349;22;20274;-82
2024/01/30 07:45:38;;;;;;;4.47;1.70;;;5.80;73.00;;;;;;6328614;22;20167;-82
2024/01/30 07:51:03;;;;;;;2.03;1.40;;;6.00;72.90;;;;;;6330776;22;20178;-83
2024/01/30 07:53:47;;;;;;;3.70;1.60;;;6.10;72.80;;;;;;6328501;22;20176;-83
2024/01/30 07:56:29;;;;;;;3.47;1.10;;;6.10;72.70;;;;;;6332202;22;20256;-84
2024/01/30 07:58:58;;;;;;;2.60;2.40;;;6.20;71.70;;;;;;6328441;22;20182;-84
2024/01/30 08:10:18;;;;;;;1.40;1.30;;;6.50;71.30;;;;;;6330228;22;20289;-85
2024/01/30 08:12:46;;;;;;;1.93;1.73;;;6.60;71.20;;;;;;6332511;22;20168;-84
2024/01/30 08:15:15;;;;;;;2.20;2.00;;;6.60;70.40;;;;;;6330101;22;20194;-84
2024/01/30 08:17:44;;;;;;;1.45;1.35;;;6.70;70.20;;;;;;6333035;22;20480;-84
2024/01/30 08:22:55;;;;;;;10.20;2.00;;;6.80;70.40;;;;;;6329631;22;20520;-85
2024/01/30 08:25:40;;;;;;;2.90;2.33;;;6.90;69.80;;;;;;6331405;22;20235;-83
2024/01/30 08:28:08;;;;;;;2.50;2.30;;;7.00;70.00;;;;;;6331388;22;20176;-82
2024/01/30 08:30:39;;;;;;;1.07;1.07;;;7.10;68.90;;;;;;6333277;22;20168;-82
2024/01/30 08:33:07;;;;;;;3.07;1.63;;;7.20;68.60;;;;;;6331866;22;20175;-83
2024/01/30 08:38:18;;;;;;;0.80;0.80;;;7.30;67.50;;;;;;6330829;22;20206;-83
2024/01/30 08:41:16;;;;;;;0.83;0.77;;;7.50;68.10;;;;;;6333277;22;20239;-82
2024/01/30 08:46:42;;;;;;;0.60;0.60;;;7.50;66.00;;;;;;6330300;22;20161;-83
2024/01/30 08:49:10;;;;;;;0.50;0.50;;;7.60;66.20;;;;;;6330288;22;20293;-83
2024/01/30 08:51:52;;;;;;;1.48;1.38;;;7.70;67.00;;;;;;6327496;22;20412;-83
2024/01/30 08:54:21;;;;;;;3.50;0.90;;;7.80;65.90;;;;;;6327235;22;20511;-83
2024/01/30 08:59:34;;;;;;;1.20;1.10;;;7.90;65.90;;;;;;6332299;22;20482;-84
2024/01/30 09:04:58;;;;;;;1.13;1.13;;;8.10;65.90;;;;;;6328962;22;20249;-86
2024/01/30 09:07:27;;;;;;;0.60;0.60;;;8.30;66.10;;;;;;6332724;22;20172;-86
2024/01/30 09:09:56;;;;;;;0.80;0.80;;;8.40;65.60;;;;;;6332724;22;20496;-88
2024/01/30 09:12:26;;;;;;;2.03;1.17;;;8.40;65.00;;;;;;6333735;22;20178;-88
2024/01/30 09:14:55;;;;;;;0.50;0.50;;;8.40;65.80;;;;;;6328261;22;20172;-87
2024/01/30 09:17:24;;;;;;;3.13;0.97;;;8.50;66.00;;;;;;6332515;22;21138;-88
2024/01/30 09:19:52;;;;;;;1.50;1.40;;;8.60;66.20;;;;;;6331009;22;20168;-88
2024/01/30 09:22:21;;;;;;;0.80;0.80;;;8.60;65.70;;;;;;6333148;22;20169;-86
2024/01/30 09:24:49;;;;;;;1.63;0.90;;;8.70;66.10;;;;;;6329416;22;20169;-85
2024/01/30 09:27:18;;;;;;;0.90;0.90;;;8.70;65.00;;;;;;6334067;22;20247;-85
2024/01/30 09:29:48;;;;;;;3.03;2.00;;;8.70;65.30;;;;;;6333221;22;20191;-86
2024/01/30 09:32:17;;;;;;;2.00;1.50;;;8.80;65.40;;;;;;6333153;22;20172;-86
2024/01/30 09:34:46;;;;;;;2.10;1.13;;;8.80;65.60;;;;;;6330412;22;20171;-86
2024/01/30 09:37:17;;;;;;;0.50;0.50;;;8.80;65.80;;;;;;6331274;22;20192;-85
2024/01/30 09:39:46;;;;;;;0.50;0.50;;;8.90;66.00;;;;;;6333696;22;20497;-85
2024/01/30 09:42:34;;;;;;;0.40;0.40;;;8.90;65.50;;;;;;6332544;22;20172;-86
2024/01/30 09:45:05;;;;;;;6.43;1.70;;;8.90;65.90;;;;;;6326396;22;20575;-86
2024/01/30 09:47:37;;;;;;;0.77;0.60;;;9.00;66.00;;;;;;6330989;22;20267;-89
2024/01/30 09:50:08;;;;;;;0.50;0.50;;;9.10;65.90;;;;;;6333388;22;20168;-89
2024/01/30 09:52:37;;;;;;;0.80;0.80;;;9.20;65.50;;;;;;6330434;22;20255;-88
2024/01/30 09:55:06;;;;;;;1.30;1.20;;;9.30;64.80;;;;;;6329766;22;20171;-88
2024/01/30 09:57:36;;;;;;;0.77;0.77;;;9.30;64.40;;;;;;6337091;22;20216;-87
2024/01/30 10:00:08;;;;;;;2.43;1.33;;;9.30;64.00;;;;;;6336610;22;20166;-89
2024/01/30 10:02:37;;;;;;;0.97;0.87;;;9.40;63.10;;;;;;6331544;22;20267;-89
2024/01/30 10:05:06;;;;;;;2.27;1.90;;;9.50;63.70;;;;;;6328296;22;20165;-88
2024/01/30 10:07:35;;;;;;;1.47;1.00;;;9.50;62.80;;;;;;6333731;22;20179;-86
2024/01/30 10:10:06;;;;;;;1.07;1.03;;;9.50;62.20;;;;;;6337250;22;20169;-88
2024/01/30 10:12:35;;;;;;;0.87;0.87;;;9.60;62.20;;;;;;6348114;22;20193;-87
2024/01/30 10:15:09;;;;;;;1.05;0.93;;;9.70;61.20;;;;;;6347776;22;20416;-90
2024/01/30 10:17:39;;;;;;;0.77;0.77;;;9.70;61.50;;;;;;6352336;22;20243;-84
2024/01/30 10:20:09;;;;;;;1.50;1.23;;;9.80;61.50;;;;;;6336074;22;20642;-84
2024/01/30 10:22:37;;;;;;;9.03;1.17;;;9.80;61.60;;;;;;6331772;22;20251;-83
2024/01/30 10:25:07;;;;;;;0.82;0.82;;;9.90;61.60;;;;;;6330532;22;20452;-83
2024/01/30 10:27:36;;;;;;;1.03;0.93;;;9.80;61.80;;;;;;6332910;22;20168;-84
2024/01/30 10:30:08;;;;;;;1.30;0.97;;;9.80;59.30;;;;;;6332309;22;20202;-83
2024/01/30 10:32:37;;;;;;;3.00;0.93;;;9.80;59.70;;;;;;6333958;22;20251;-84
2024/01/30 10:35:05;;;;;;;0.40;0.40;;;9.90;60.10;;;;;;6327013;22;20617;-83
2024/01/30 10:37:35;;;;;;;0.60;0.60;;;9.90;61.20;;;;;;6331904;22;20188;-83
2024/01/30 10:40:05;;;;;;;1.40;0.87;;;9.90;58.30;;;;;;6333711;22;20612;-83
2024/01/30 10:42:37;;;;;;;1.07;0.97;;;9.80;58.70;;;;;;6332936;22;20249;-83
2024/01/30 10:45:12;;;;;;;0.63;0.63;;;9.90;59.50;;;;;;6327590;22;20513;-83
2024/01/30 10:47:44;;;;;;;2.87;1.77;;;9.90;59.80;;;;;;6329272;22;20268;-82
2024/01/30 10:50:13;;;;;;;4.37;2.20;;;10.00;59.90;;;;;;6329691;22;20489;-83
2024/01/30 10:52:43;;;;;;;1.23;1.13;;;10.00;59.30;;;;;;6329337;22;20183;-85
2024/01/30 10:55:12;;;;;;;0.90;0.90;;;9.90;59.00;;;;;;6329110;22;20172;-85
2024/01/30 10:57:41;;;;;;;1.50;0.87;;;10.00;59.20;;;;;;6334506;22;20223;-85
2024/01/30 11:03:08;;;;;;;3.33;2.00;;;9.90;59.00;;;;;;6330249;22;20538;-85
2024/01/30 11:05:42;;;;;;;0.80;0.80;;;9.90;59.20;;;;;;6332090;22;20164;-85
2024/01/30 11:08:14;;;;;;;0.70;0.70;;;10.00;59.60;;;;;;6332854;22;20200;-85
2024/01/30 11:10:48;;;;;;;1.17;1.07;;;10.00;59.40;;;;;;6334716;22;20168;-85
2024/01/30 11:13:32;;;;;;;1.67;1.13;;;10.10;59.20;;;;;;6328049;22;20230;-86
2024/01/30 11:16:06;;;;;;;0.40;0.40;;;10.20;59.40;;;;;;6332876;22;20686;-90
2024/01/30 11:18:37;;;;;;;2.00;0.93;;;10.20;59.00;;;;;;6332812;22;20196;-87
2024/01/30 11:21:06;;;;;;;5.70;1.67;;;10.30;58.90;;;;;;6332844;22;20169;-84
2024/01/30 11:23:36;;;;;;;0.70;0.60;;;10.30;59.20;;;;;;6329340;22;20178;-85
2024/01/30 11:26:05;;;;;;;2.23;1.57;;;10.30;58.90;;;;;;6329575;22;20207;-85
2024/01/30 11:31:20;;;;;;;0.97;0.97;;;10.40;58.10;;;;;;6325840;22;20180;-85
2024/01/30 11:33:54;;;;;;;0.80;0.73;;;10.40;58.30;;;;;;6328948;22;20445;-81
2024/01/30 11:36:27;;;;;;;1.53;1.00;;;10.50;58.40;;;;;;6329280;22;20169;-81
2024/01/30 11:39:10;;;;;;;0.97;0.97;;;10.50;58.30;;;;;;6325534;22;20200;-82
2024/01/30 11:41:39;;;;;;;1.20;1.00;;;10.50;58.50;;;;;;6327808;22;20171;-82
2024/01/30 11:44:22;;;;;;;1.00;0.93;;;10.50;58.00;;;;;;6324829;22;20172;-80
2024/01/30 11:47:07;;;;;;;1.63;1.37;;;10.50;57.60;;;;;;6327699;22;20200;-83
2024/01/30 11:52:18;;;;;;;1.90;1.30;;;10.50;57.50;;;;;;6328658;22;20548;-81
2024/01/30 11:54:47;;;;;;;7.80;2.20;;;10.40;57.90;;;;;;6327059;22;20192;-82
2024/01/30 11:57:15;;;;;;;1.03;1.00;;;10.50;58.30;;;;;;6330337;22;20642;-81
2024/01/30 11:59:44;;;;;;;2.47;1.00;;;10.50;58.50;;;;;;6331313;22;20207;-82
2024/01/30 12:02:18;;;;;;;3.30;1.60;;;10.50;58.40;;;;;;6331611;22;20237;-82
2024/01/30 12:04:47;;;;;;;1.60;1.50;;;10.60;58.30;;;;;;6330239;22;20168;-81
2024/01/30 12:07:16;;;;;;;3.60;1.03;;;10.60;58.40;;;;;;6331489;22;20527;-79
2024/01/30 12:09:53;;;;;;;1.20;1.13;;;10.60;58.00;;;;;;6330727;22;20225;-83
2024/01/30 12:12:25;;;;;;;2.83;1.27;;;10.60;58.30;;;;;;6331171;22;20164;-83
2024/01/30 12:14:53;;;;;;;2.07;1.87;;;10.60;57.70;;;;;;6328418;22;20175;-82
2024/01/30 12:17:54;;;;;;;3.50;2.07;;;10.60;57.50;;;;;;6330233;22;20167;-83
2024/01/30 12:20:29;;;;;;;1.20;1.10;;;10.50;57.50;;;;;;6334720;22;20248;-94
2024/01/30 12:22:58;;;;;;;1.10;1.03;;;10.40;58.00;;;;;;6336388;22;20204;-93
2024/01/30 12:25:26;;;;;;;1.97;1.67;;;10.40;58.30;;;;;;6336641;22;20161;-93
2024/01/30 12:28:09;;;;;;;0.73;0.73;;;10.50;58.60;;;;;;6330663;22;20164;-92
2024/01/30 12:30:37;;;;;;;1.17;1.00;;;10.40;58.60;;;;;;6337317;22;20156;-92
2024/01/30 12:33:08;;;;;;;2.37;1.27;;;10.50;58.60;;;;;;6334881;22;20172;-91
2024/01/30 12:35:38;;;;;;;3.10;1.67;;;10.50;58.50;;;;;;6335474;22;20485;-91
2024/01/30 12:38:19;;;;;;;1.90;1.73;;;10.50;58.60;;;;;;6334902;22;20179;-92
2024/01/30 12:40:48;;;;;;;1.00;0.93;;;10.60;58.50;;;;;;6335257;22;20773;-84
2024/01/30 12:43:17;;;;;;;2.20;1.90;;;10.60;58.30;;;;;;6331353;22;20248;-85
2024/01/30 12:46:00;;;;;;;3.08;1.52;;;10.60;57.90;;;;;;6331980;22;20426;-87
2024/01/30 12:48:29;;;;;;;0.80;0.80;;;10.60;58.40;;;;;;6331245;22;20561;-85
2024/01/30 12:51:00;;;;;;;1.50;1.13;;;10.70;58.00;;;;;;6333856;22;20171;-83
2024/01/30 12:53:29;;;;;;;1.30;0.90;;;10.70;57.80;;;;;;6328551;22;20251;-83
2024/01/30 12:55:57;;;;;;;5.17;1.30;;;10.80;58.00;;;;;;6345063;22;20244;-84
2024/01/30 12:58:26;;;;;;;1.73;0.73;;;10.80;58.30;;;;;;6345639;22;20175;-84
2024/01/30 13:00:55;;;;;;;1.70;0.93;;;10.90;58.30;;;;;;6336510;22;20164;-85
2024/01/30 13:03:24;;;;;;;1.60;1.17;;;10.80;58.30;;;;;;6330080;22;20660;-85
2024/01/30 13:05:53;;;;;;;1.13;0.97;;;10.80;58.40;;;;;;6335089;22;20612;-86
2024/01/30 13:08:23;;;;;;;1.43;1.00;;;10.90;58.90;;;;;;6333159;22;20176;-87
2024/01/30 13:10:52;;;;;;;1.80;1.37;;;11.00;59.60;;;;;;6335448;22;20167;-86
2024/01/30 13:13:21;;;;;;;2.90;1.37;;;11.10;59.20;;;;;;6330852;22;20521;-85
2024/01/30 13:15:50;;;;;;;7.40;1.50;;;11.30;59.10;;;;;;6334248;22;20251;-85
2024/01/30 13:18:18;;;;;;;1.80;1.13;;;11.50;59.20;;;;;;6331653;22;20697;-86
2024/01/30 13:20:47;;;;;;;2.60;1.43;;;11.70;59.20;;;;;;6333785;22;20192;-88
2024/01/30 13:23:15;;;;;;;2.33;2.13;;;11.90;58.40;;;;;;6332198;22;20681;-88
2024/01/30 13:25:45;;;;;;;1.93;1.37;;;12.10;59.20;;;;;;6334382;22;20175;-89
2024/01/30 13:28:14;;;;;;;4.83;1.67;;;12.30;59.50;;;;;;6333046;22;20674;-87
2024/01/30 13:30:42;;;;;;;1.10;1.00;;;12.60;57.70;;;;;;6333001;22;20172;-88
2024/01/30 13:33:11;;;;;;;1.43;0.77;;;12.80;58.30;;;;;;6331590;22;20175;-87
2024/01/30 13:35:39;;;;;;;0.90;0.80;;;13.00;57.50;;;;;;6334217;22;20572;-86
2024/01/30 13:38:08;;;;;;;2.25;1.23;;;13.40;58.60;;;;;;6333149;22;20620;-88
2024/01/30 13:43:20;;;;;;;0.88;0.80;;;14.80;57.30;;;;;;6330147;22;20172;-88
2024/01/30 13:48:45;;;;;;;2.47;1.08;;;17.90;49.90;;;;;;6332871;22;20251;-86
2024/01/30 13:51:14;;;;;;;1.52;0.77;;;19.50;46.60;;;;;;6332781;22;20188;-88
2024/01/30 13:53:42;;;;;;;1.77;0.80;;;20.60;46.50;;;;;;6330500;22;20171;-86
2024/01/30 13:56:26;;;;;;;3.00;1.00;;;23.30;43.40;;;;;;6332204;22;20177;-86
2024/01/30 13:58:57;;;;;;;1.05;1.00;;;24.00;40.90;;;;;;6332854;22;20173;-87
2024/01/30 14:01:26;;;;;;;5.20;1.70;;;23.80;40.60;;;;;;6332201;22;20262;-90
2024/01/30 14:04:08;;;;;;;0.82;0.60;;;23.50;40.10;;;;;;6326871;22;20164;-89
2024/01/30 14:09:32;;;;;;;0.98;0.88;;;20.60;42.60;;;;;;6347663;22;20172;-91
2024/01/30 14:14:45;;;;;;;2.63;1.58;;;22.30;41.70;;;;;;6338606;22;20185;-90
2024/01/30 14:17:14;;;;;;;2.88;0.95;;;23.00;39.80;;;;;;6345294;22;20164;-85
2024/01/30 14:22:38;;;;;;;1.63;1.30;;;21.70;40.20;;;;;;6330794;22;20187;-87
2024/01/30 14:25:08;;;;;;;0.98;0.85;;;21.70;40.00;;;;;;6329987;22;20176;-86